sensor_id;sensor_type;location;lat;lon;timestamp;temperature;humidity
24408;DHT22;12542;50.924;4.516;2023-03-23T00:01:32;13.40;99.90
24408;DHT22;12542;50.924;4.516;2023-03-23T00:04:02;13.40;99.90
24408;DHT22;12542;50.924;4.516;2023-03-23T00:06:28;13.50;99.90
24408;DHT22;12542;50.924;4.516;2023-03-23T00:09:00;13.50;99.90
24408;DHT22;12542;50.924;4.516;2023-03-23T00:11:28;13.50;99.90
24408;DHT22;12542;50.924;4.516;2023-03-23T00:13:56;13.40;99.90
24408;DHT22;12542;50.924;4.516;2023-03-23T00:16:25;13.40;99.90
24408;DHT22;12542;50.924;4.516;2023-03-23T00:19:04;13.30;99.90
24408;DHT22;12542;50.924;4.516;2023-03-23T00:21:34;13.40;99.90
24408;DHT22;12542;50.924;4.516;2023-03-23T00:26:32;13.40;99.90
24408;DHT22;12542;50.924;4.516;2023-03-23T00:29:06;13.40;99.90
24408;DHT22;12542;50.924;4.516;2023-03-23T00:31:33;13.40;99.90
24408;DHT22;12542;50.924;4.516;2023-03-23T00:34:01;13.30;99.90
24408;DHT22;12542;50.924;4.516;2023-03-23T00:36:30;13.30;99.90
24408;DHT22;12542;50.924;4.516;2023-03-23T00:38:57;13.30;99.90
24408;DHT22;12542;50.924;4.516;2023-03-23T00:41:27;13.30;99.90
24408;DHT22;12542;50.924;4.516;2023-03-23T00:43:57;13.30;99.90
24408;DHT22;12542;50.924;4.516;2023-03-23T00:46:26;13.30;99.90
24408;DHT22;12542;50.924;4.516;2023-03-23T00:48:54;13.30;99.90
24408;DHT22;12542;50.924;4.516;2023-03-23T00:51:20;13.30;99.90
24408;DHT22;12542;50.924;4.516;2023-03-23T00:53:46;13.30;99.90
24408;DHT22;12542;50.924;4.516;2023-03-23T00:56:13;13.30;99.90
24408;DHT22;12542;50.924;4.516;2023-03-23T00:58:39;13.30;99.90
24408;DHT22;12542;50.924;4.516;2023-03-23T01:01:05;13.30;99.90
24408;DHT22;12542;50.924;4.516;2023-03-23T01:03:31;13.30;99.90
24408;DHT22;12542;50.924;4.516;2023-03-23T01:05:57;13.40;99.90
24408;DHT22;12542;50.924;4.516;2023-03-23T01:08:24;13.40;99.90
24408;DHT22;12542;50.924;4.516;2023-03-23T01:10:50;13.40;99.90
24408;DHT22;12542;50.924;4.516;2023-03-23T01:13:16;13.50;99.90
24408;DHT22;12542;50.924;4.516;2023-03-23T01:15:42;13.60;99.90
24408;DHT22;12542;50.924;4.516;2023-03-23T01:18:09;13.60;99.90
24408;DHT22;12542;50.924;4.516;2023-03-23T01:20:36;13.60;99.90
24408;DHT22;12542;50.924;4.516;2023-03-23T01:23:02;13.50;99.90
24408;DHT22;12542;50.924;4.516;2023-03-23T01:25:30;13.60;99.90
24408;DHT22;12542;50.924;4.516;2023-03-23T01:27:57;13.50;99.90
24408;DHT22;12542;50.924;4.516;2023-03-23T01:30:23;13.40;99.90
24408;DHT22;12542;50.924;4.516;2023-03-23T01:32:49;13.50;99.90
24408;DHT22;12542;50.924;4.516;2023-03-23T01:35:15;13.50;99.90
24408;DHT22;12542;50.924;4.516;2023-03-23T01:37:41;13.50;99.90
24408;DHT22;12542;50.924;4.516;2023-03-23T01:40:07;13.50;99.90
24408;DHT22;12542;50.924;4.516;2023-03-23T01:42:36;13.40;99.90
24408;DHT22;12542;50.924;4.516;2023-03-23T01:45:29;13.40;99.90
24408;DHT22;12542;50.924;4.516;2023-03-23T01:48:18;13.50;99.90
24408;DHT22;12542;50.924;4.516;2023-03-23T01:51:08;13.40;99.90
24408;DHT22;12542;50.924;4.516;2023-03-23T01:53:38;13.40;99.90
24408;DHT22;12542;50.924;4.516;2023-03-23T01:56:06;13.50;99.90
24408;DHT22;12542;50.924;4.516;2023-03-23T01:58:34;13.50;99.90
24408;DHT22;12542;50.924;4.516;2023-03-23T02:01:05;13.40;99.90
24408;DHT22;12542;50.924;4.516;2023-03-23T02:03:35;13.40;99.90
24408;DHT22;12542;50.924;4.516;2023-03-23T02:06:01;13.40;99.90
24408;DHT22;12542;50.924;4.516;2023-03-23T02:08:29;13.40;99.90
24408;DHT22;12542;50.924;4.516;2023-03-23T02:10:58;13.40;99.90
24408;DHT22;12542;50.924;4.516;2023-03-23T02:13:24;13.40;99.90
24408;DHT22;12542;50.924;4.516;2023-03-23T02:21:34;13.50;99.90
24408;DHT22;12542;50.924;4.516;2023-03-23T02:32:04;13.50;99.90
24408;DHT22;12542;50.924;4.516;2023-03-23T02:34:42;13.50;99.90
24408;DHT22;12542;50.924;4.516;2023-03-23T02:37:16;13.60;99.90
24408;DHT22;12542;50.924;4.516;2023-03-23T02:39:49;13.60;99.90
24408;DHT22;12542;50.924;4.516;2023-03-23T02:42:20;13.70;99.90
24408;DHT22;12542;50.924;4.516;2023-03-23T02:44:48;13.70;99.90
24408;DHT22;12542;50.924;4.516;2023-03-23T02:47:18;13.70;99.90
24408;DHT22;12542;50.924;4.516;2023-03-23T02:49:46;13.90;99.90
24408;DHT22;12542;50.924;4.516;2023-03-23T02:52:17;13.90;99.90
24408;DHT22;12542;50.924;4.516;2023-03-23T02:54:46;13.90;99.90
24408;DHT22;12542;50.924;4.516;2023-03-23T02:57:13;13.90;99.90
24408;DHT22;12542;50.924;4.516;2023-03-23T02:59:39;13.90;99.90
24408;DHT22;12542;50.924;4.516;2023-03-23T03:02:17;13.80;99.90
24408;DHT22;12542;50.924;4.516;2023-03-23T03:04:51;13.90;99.90
24408;DHT22;12542;50.924;4.516;2023-03-23T03:07:30;13.80;99.90
24408;DHT22;12542;50.924;4.516;2023-03-23T03:20:30;13.80;99.90
24408;DHT22;12542;50.924;4.516;2023-03-23T03:22:57;13.80;99.90
24408;DHT22;12542;50.924;4.516;2023-03-23T03:25:25;13.80;99.90
24408;DHT22;12542;50.924;4.516;2023-03-23T03:27:53;13.90;99.90
24408;DHT22;12542;50.924;4.516;2023-03-23T03:30:23;13.90;99.90
24408;DHT22;12542;50.924;4.516;2023-03-23T03:32:51;13.90;99.90
24408;DHT22;12542;50.924;4.516;2023-03-23T03:35:23;13.90;99.90
24408;DHT22;12542;50.924;4.516;2023-03-23T03:37:50;13.60;99.90
24408;DHT22;12542;50.924;4.516;2023-03-23T03:40:19;13.70;99.90
24408;DHT22;12542;50.924;4.516;2023-03-23T03:42:45;13.70;99.90
24408;DHT22;12542;50.924;4.516;2023-03-23T03:45:20;13.70;99.90
24408;DHT22;12542;50.924;4.516;2023-03-23T03:47:46;13.60;99.90
24408;DHT22;12542;50.924;4.516;2023-03-23T03:50:12;13.70;99.90
24408;DHT22;12542;50.924;4.516;2023-03-23T03:52:38;13.70;99.90
24408;DHT22;12542;50.924;4.516;2023-03-23T03:55:06;13.70;99.90
24408;DHT22;12542;50.924;4.516;2023-03-23T03:57:33;13.50;99.90
24408;DHT22;12542;50.924;4.516;2023-03-23T03:59:59;13.60;99.90
24408;DHT22;12542;50.924;4.516;2023-03-23T04:02:28;13.70;99.90
24408;DHT22;12542;50.924;4.516;2023-03-23T04:04:53;13.90;99.90
24408;DHT22;12542;50.924;4.516;2023-03-23T04:07:19;13.80;99.90
24408;DHT22;12542;50.924;4.516;2023-03-23T04:09:47;13.70;99.90
24408;DHT22;12542;50.924;4.516;2023-03-23T04:12:14;13.50;99.90
24408;DHT22;12542;50.924;4.516;2023-03-23T04:14:40;13.50;99.90
24408;DHT22;12542;50.924;4.516;2023-03-23T04:17:06;13.50;99.90
24408;DHT22;12542;50.924;4.516;2023-03-23T04:19:35;13.40;99.90
24408;DHT22;12542;50.924;4.516;2023-03-23T04:22:02;13.40;99.90
24408;DHT22;12542;50.924;4.516;2023-03-23T04:24:28;13.50;99.90
24408;DHT22;12542;50.924;4.516;2023-03-23T04:26:57;13.50;99.90
24408;DHT22;12542;50.924;4.516;2023-03-23T04:29:23;13.50;99.90
24408;DHT22;12542;50.924;4.516;2023-03-23T04:31:49;13.60;99.90
24408;DHT22;12542;50.924;4.516;2023-03-23T04:34:16;13.60;99.90
24408;DHT22;12542;50.924;4.516;2023-03-23T04:36:42;13.50;99.90
24408;DHT22;12542;50.924;4.516;2023-03-23T04:39:08;13.70;99.90
24408;DHT22;12542;50.924;4.516;2023-03-23T04:41:39;13.70;99.90
24408;DHT22;12542;50.924;4.516;2023-03-23T04:44:06;13.60;99.90
24408;DHT22;12542;50.924;4.516;2023-03-23T04:46:32;13.70;99.90
24408;DHT22;12542;50.924;4.516;2023-03-23T04:48:58;13.70;99.90
24408;DHT22;12542;50.924;4.516;2023-03-23T04:51:35;13.50;99.90
24408;DHT22;12542;50.924;4.516;2023-03-23T04:54:01;13.70;99.90
24408;DHT22;12542;50.924;4.516;2023-03-23T04:56:27;13.90;99.90
24408;DHT22;12542;50.924;4.516;2023-03-23T04:58:52;14.00;99.90
24408;DHT22;12542;50.924;4.516;2023-03-23T05:01:18;13.70;99.90
24408;DHT22;12542;50.924;4.516;2023-03-23T05:03:44;13.60;99.90
24408;DHT22;12542;50.924;4.516;2023-03-23T05:06:10;13.60;99.90
24408;DHT22;12542;50.924;4.516;2023-03-23T05:08:36;13.60;99.90
24408;DHT22;12542;50.924;4.516;2023-03-23T05:11:05;13.50;99.90
24408;DHT22;12542;50.924;4.516;2023-03-23T05:13:31;13.60;99.90
24408;DHT22;12542;50.924;4.516;2023-03-23T05:15:57;13.60;99.90
24408;DHT22;12542;50.924;4.516;2023-03-23T05:18:23;13.40;99.90
24408;DHT22;12542;50.924;4.516;2023-03-23T05:20:49;13.40;99.90
24408;DHT22;12542;50.924;4.516;2023-03-23T05:23:18;13.20;99.90
24408;DHT22;12542;50.924;4.516;2023-03-23T05:25:53;13.20;99.90
24408;DHT22;12542;50.924;4.516;2023-03-23T05:28:18;13.30;99.90
24408;DHT22;12542;50.924;4.516;2023-03-23T05:30:44;13.30;99.90
24408;DHT22;12542;50.924;4.516;2023-03-23T05:33:10;13.30;99.90
24408;DHT22;12542;50.924;4.516;2023-03-23T05:35:35;13.20;99.90
24408;DHT22;12542;50.924;4.516;2023-03-23T05:38:01;13.10;99.90
24408;DHT22;12542;50.924;4.516;2023-03-23T05:40:28;13.20;99.90
24408;DHT22;12542;50.924;4.516;2023-03-23T05:42:55;13.10;99.90
24408;DHT22;12542;50.924;4.516;2023-03-23T05:45:24;13.10;99.90
24408;DHT22;12542;50.924;4.516;2023-03-23T05:47:51;13.00;99.90
24408;DHT22;12542;50.924;4.516;2023-03-23T05:50:17;13.00;99.90
24408;DHT22;12542;50.924;4.516;2023-03-23T05:52:44;13.00;99.90
24408;DHT22;12542;50.924;4.516;2023-03-23T05:55:10;13.00;99.90
24408;DHT22;12542;50.924;4.516;2023-03-23T05:57:37;12.90;99.90
24408;DHT22;12542;50.924;4.516;2023-03-23T06:00:04;12.90;99.90
24408;DHT22;12542;50.924;4.516;2023-03-23T06:02:37;12.90;99.90
24408;DHT22;12542;50.924;4.516;2023-03-23T06:05:06;12.90;99.90
24408;DHT22;12542;50.924;4.516;2023-03-23T06:07:32;13.00;99.90
24408;DHT22;12542;50.924;4.516;2023-03-23T06:09:57;12.90;99.90
24408;DHT22;12542;50.924;4.516;2023-03-23T06:12:23;12.90;99.90
24408;DHT22;12542;50.924;4.516;2023-03-23T06:14:52;13.00;99.90
24408;DHT22;12542;50.924;4.516;2023-03-23T06:17:18;13.00;99.90
24408;DHT22;12542;50.924;4.516;2023-03-23T06:19:44;13.10;99.90
24408;DHT22;12542;50.924;4.516;2023-03-23T06:22:15;13.10;99.90
24408;DHT22;12542;50.924;4.516;2023-03-23T06:24:40;13.00;99.90
24408;DHT22;12542;50.924;4.516;2023-03-23T06:27:06;13.00;99.90
24408;DHT22;12542;50.924;4.516;2023-03-23T06:29:34;13.00;99.90
24408;DHT22;12542;50.924;4.516;2023-03-23T06:32:01;13.10;99.90
24408;DHT22;12542;50.924;4.516;2023-03-23T06:34:28;13.10;99.90
24408;DHT22;12542;50.924;4.516;2023-03-23T06:36:55;13.10;99.90
24408;DHT22;12542;50.924;4.516;2023-03-23T06:39:21;13.10;99.90
24408;DHT22;12542;50.924;4.516;2023-03-23T06:41:48;13.20;99.90
24408;DHT22;12542;50.924;4.516;2023-03-23T06:44:13;13.20;99.90
24408;DHT22;12542;50.924;4.516;2023-03-23T06:46:40;13.20;99.90
24408;DHT22;12542;50.924;4.516;2023-03-23T06:49:07;13.30;99.90
24408;DHT22;12542;50.924;4.516;2023-03-23T06:51:33;13.40;99.90
24408;DHT22;12542;50.924;4.516;2023-03-23T06:53:59;13.40;99.90
24408;DHT22;12542;50.924;4.516;2023-03-23T06:56:25;13.60;99.90
24408;DHT22;12542;50.924;4.516;2023-03-23T06:58:55;13.70;99.90
24408;DHT22;12542;50.924;4.516;2023-03-23T07:01:21;13.80;99.90
24408;DHT22;12542;50.924;4.516;2023-03-23T07:03:47;13.80;99.90
24408;DHT22;12542;50.924;4.516;2023-03-23T07:06:14;13.70;99.90
24408;DHT22;12542;50.924;4.516;2023-03-23T07:08:41;13.60;99.90
24408;DHT22;12542;50.924;4.516;2023-03-23T07:11:08;12.90;99.90
24408;DHT22;12542;50.924;4.516;2023-03-23T07:13:35;12.70;99.90
24408;DHT22;12542;50.924;4.516;2023-03-23T07:16:05;12.20;99.90
24408;DHT22;12542;50.924;4.516;2023-03-23T07:18:33;11.90;99.90
24408;DHT22;12542;50.924;4.516;2023-03-23T07:20:59;11.90;99.90
24408;DHT22;12542;50.924;4.516;2023-03-23T07:23:25;11.80;99.90
24408;DHT22;12542;50.924;4.516;2023-03-23T07:25:51;11.50;99.90
24408;DHT22;12542;50.924;4.516;2023-03-23T07:28:17;11.40;99.90
24408;DHT22;12542;50.924;4.516;2023-03-23T07:30:44;11.20;99.90
24408;DHT22;12542;50.924;4.516;2023-03-23T07:33:10;11.20;99.90
24408;DHT22;12542;50.924;4.516;2023-03-23T07:35:36;11.30;99.90
24408;DHT22;12542;50.924;4.516;2023-03-23T07:38:04;11.40;99.90
24408;DHT22;12542;50.924;4.516;2023-03-23T07:40:30;11.40;99.90
24408;DHT22;12542;50.924;4.516;2023-03-23T07:42:59;11.30;99.90
24408;DHT22;12542;50.924;4.516;2023-03-23T07:45:25;11.30;99.90
24408;DHT22;12542;50.924;4.516;2023-03-23T07:47:52;11.30;99.90
24408;DHT22;12542;50.924;4.516;2023-03-23T07:50:19;11.40;99.90
24408;DHT22;12542;50.924;4.516;2023-03-23T07:52:50;11.60;99.90
24408;DHT22;12542;50.924;4.516;2023-03-23T07:55:16;11.80;99.90
24408;DHT22;12542;50.924;4.516;2023-03-23T07:57:48;11.80;99.90
24408;DHT22;12542;50.924;4.516;2023-03-23T08:00:18;12.00;99.90
24408;DHT22;12542;50.924;4.516;2023-03-23T08:02:50;12.00;99.90
24408;DHT22;12542;50.924;4.516;2023-03-23T08:05:16;12.20;99.90
24408;DHT22;12542;50.924;4.516;2023-03-23T08:07:44;12.00;99.90
24408;DHT22;12542;50.924;4.516;2023-03-23T08:10:11;11.90;99.90
24408;DHT22;12542;50.924;4.516;2023-03-23T08:12:39;12.20;99.90
24408;DHT22;12542;50.924;4.516;2023-03-23T08:15:08;12.40;99.90
24408;DHT22;12542;50.924;4.516;2023-03-23T08:17:34;12.70;99.90
24408;DHT22;12542;50.924;4.516;2023-03-23T08:20:01;12.90;99.90
24408;DHT22;12542;50.924;4.516;2023-03-23T08:22:33;13.00;99.90
24408;DHT22;12542;50.924;4.516;2023-03-23T08:25:02;13.10;99.90
24408;DHT22;12542;50.924;4.516;2023-03-23T08:27:29;13.20;99.90
24408;DHT22;12542;50.924;4.516;2023-03-23T08:29:54;13.30;99.90
24408;DHT22;12542;50.924;4.516;2023-03-23T08:32:20;13.10;99.90
24408;DHT22;12542;50.924;4.516;2023-03-23T08:34:46;13.10;99.90
24408;DHT22;12542;50.924;4.516;2023-03-23T08:37:12;13.20;99.90
24408;DHT22;12542;50.924;4.516;2023-03-23T08:39:37;13.10;99.90
24408;DHT22;12542;50.924;4.516;2023-03-23T08:42:03;13.10;99.90
24408;DHT22;12542;50.924;4.516;2023-03-23T08:44:29;13.20;99.90
24408;DHT22;12542;50.924;4.516;2023-03-23T08:46:55;13.10;99.90
24408;DHT22;12542;50.924;4.516;2023-03-23T08:49:23;13.10;99.90
24408;DHT22;12542;50.924;4.516;2023-03-23T08:51:49;13.00;99.90
24408;DHT22;12542;50.924;4.516;2023-03-23T08:54:15;13.20;99.90
24408;DHT22;12542;50.924;4.516;2023-03-23T08:56:41;13.20;99.90
24408;DHT22;12542;50.924;4.516;2023-03-23T08:59:07;13.30;99.90
24408;DHT22;12542;50.924;4.516;2023-03-23T09:01:33;13.10;99.90
24408;DHT22;12542;50.924;4.516;2023-03-23T09:03:59;13.00;99.90
24408;DHT22;12542;50.924;4.516;2023-03-23T09:06:25;12.90;99.90
24408;DHT22;12542;50.924;4.516;2023-03-23T09:08:51;13.20;99.90
24408;DHT22;12542;50.924;4.516;2023-03-23T09:11:17;13.40;99.90
24408;DHT22;12542;50.924;4.516;2023-03-23T09:13:43;13.60;99.90
24408;DHT22;12542;50.924;4.516;2023-03-23T09:16:09;13.80;99.90
24408;DHT22;12542;50.924;4.516;2023-03-23T09:18:34;13.70;99.90
24408;DHT22;12542;50.924;4.516;2023-03-23T09:21:01;13.70;99.90
24408;DHT22;12542;50.924;4.516;2023-03-23T09:23:28;13.70;99.90
24408;DHT22;12542;50.924;4.516;2023-03-23T09:25:54;13.30;99.90
24408;DHT22;12542;50.924;4.516;2023-03-23T09:28:20;13.00;99.90
24408;DHT22;12542;50.924;4.516;2023-03-23T09:30:46;13.30;99.90
24408;DHT22;12542;50.924;4.516;2023-03-23T09:33:13;13.10;99.90
24408;DHT22;12542;50.924;4.516;2023-03-23T09:35:39;13.30;99.90
24408;DHT22;12542;50.924;4.516;2023-03-23T09:38:09;13.20;99.90
24408;DHT22;12542;50.924;4.516;2023-03-23T09:41:00;13.00;99.90
24408;DHT22;12542;50.924;4.516;2023-03-23T09:43:49;13.20;99.90
24408;DHT22;12542;50.924;4.516;2023-03-23T09:49:25;14.00;99.90
24408;DHT22;12542;50.924;4.516;2023-03-23T09:54:39;14.20;99.90
24408;DHT22;12542;50.924;4.516;2023-03-23T09:57:15;14.00;99.90
24408;DHT22;12542;50.924;4.516;2023-03-23T10:02:52;14.70;99.90
24408;DHT22;12542;50.924;4.516;2023-03-23T10:05:42;14.60;99.90
24408;DHT22;12542;50.924;4.516;2023-03-23T10:08:12;14.80;99.90
24408;DHT22;12542;50.924;4.516;2023-03-23T10:15:56;14.60;99.90
24408;DHT22;12542;50.924;4.516;2023-03-23T10:18:37;14.80;99.90
24408;DHT22;12542;50.924;4.516;2023-03-23T10:21:03;14.60;99.90
24408;DHT22;12542;50.924;4.516;2023-03-23T10:28:58;14.60;99.90
24408;DHT22;12542;50.924;4.516;2023-03-23T10:31:30;14.90;99.90
24408;DHT22;12542;50.924;4.516;2023-03-23T10:34:03;15.30;99.90
24408;DHT22;12542;50.924;4.516;2023-03-23T10:36:40;15.50;99.90
24408;DHT22;12542;50.924;4.516;2023-03-23T10:39:13;16.00;99.90
24408;DHT22;12542;50.924;4.516;2023-03-23T10:41:40;16.40;99.90
24408;DHT22;12542;50.924;4.516;2023-03-23T10:44:32;16.40;99.90
24408;DHT22;12542;50.924;4.516;2023-03-23T10:47:06;16.30;99.90
24408;DHT22;12542;50.924;4.516;2023-03-23T10:54:55;16.40;99.90
24408;DHT22;12542;50.924;4.516;2023-03-23T10:57:27;16.50;99.90
24408;DHT22;12542;50.924;4.516;2023-03-23T11:00:18;16.50;99.90
24408;DHT22;12542;50.924;4.516;2023-03-23T11:02:47;16.70;99.90
24408;DHT22;12542;50.924;4.516;2023-03-23T11:05:21;17.40;99.90
24408;DHT22;12542;50.924;4.516;2023-03-23T11:07:56;17.80;99.90
24408;DHT22;12542;50.924;4.516;2023-03-23T11:10:27;18.00;99.90
24408;DHT22;12542;50.924;4.516;2023-03-23T11:12:58;17.90;99.90
24408;DHT22;12542;50.924;4.516;2023-03-23T11:15:28;18.10;99.90
24408;DHT22;12542;50.924;4.516;2023-03-23T11:18:03;18.40;99.90
24408;DHT22;12542;50.924;4.516;2023-03-23T11:20:37;18.10;99.90
24408;DHT22;12542;50.924;4.516;2023-03-23T11:23:29;18.20;99.90
24408;DHT22;12542;50.924;4.516;2023-03-23T11:26:29;18.20;99.90
24408;DHT22;12542;50.924;4.516;2023-03-23T11:29:13;18.50;99.90
24408;DHT22;12542;50.924;4.516;2023-03-23T11:31:52;18.20;99.90
24408;DHT22;12542;50.924;4.516;2023-03-23T11:34:31;18.30;99.90
24408;DHT22;12542;50.924;4.516;2023-03-23T11:37:07;18.50;99.90
24408;DHT22;12542;50.924;4.516;2023-03-23T11:39:46;18.00;99.90
24408;DHT22;12542;50.924;4.516;2023-03-23T11:42:57;17.70;99.90
24408;DHT22;12542;50.924;4.516;2023-03-23T11:48:26;17.80;99.90
24408;DHT22;12542;50.924;4.516;2023-03-23T11:50:51;18.10;99.90
24408;DHT22;12542;50.924;4.516;2023-03-23T11:56:12;18.10;99.90
24408;DHT22;12542;50.924;4.516;2023-03-23T11:58:39;18.60;99.90
24408;DHT22;12542;50.924;4.516;2023-03-23T12:09:48;18.30;99.90
24408;DHT22;12542;50.924;4.516;2023-03-23T12:20:39;18.00;99.90
24408;DHT22;12542;50.924;4.516;2023-03-23T12:28:56;18.00;99.90
24408;DHT22;12542;50.924;4.516;2023-03-23T12:34:26;18.90;99.90
24408;DHT22;12542;50.924;4.516;2023-03-23T12:39:46;19.20;99.90
24408;DHT22;12542;50.924;4.516;2023-03-23T12:47:46;19.30;99.90
24408;DHT22;12542;50.924;4.516;2023-03-23T12:50:27;19.10;99.90
24408;DHT22;12542;50.924;4.516;2023-03-23T12:53:02;19.30;99.90
24408;DHT22;12542;50.924;4.516;2023-03-23T12:55:46;19.30;99.90
24408;DHT22;12542;50.924;4.516;2023-03-23T12:58:27;18.70;99.90
24408;DHT22;12542;50.924;4.516;2023-03-23T13:01:02;18.70;99.90
24408;DHT22;12542;50.924;4.516;2023-03-23T13:03:51;18.90;99.90
24408;DHT22;12542;50.924;4.516;2023-03-23T13:12:00;19.00;99.90
24408;DHT22;12542;50.924;4.516;2023-03-23T13:25:14;17.30;99.90
24408;DHT22;12542;50.924;4.516;2023-03-23T13:27:41;16.80;99.90
24408;DHT22;12542;50.924;4.516;2023-03-23T13:30:19;16.80;99.90
24408;DHT22;12542;50.924;4.516;2023-03-23T13:32:50;16.70;99.90
24408;DHT22;12542;50.924;4.516;2023-03-23T13:35:18;17.00;99.90
24408;DHT22;12542;50.924;4.516;2023-03-23T13:37:51;17.40;99.90
24408;DHT22;12542;50.924;4.516;2023-03-23T13:40:29;17.60;99.90
24408;DHT22;12542;50.924;4.516;2023-03-23T13:42:58;18.10;99.90
24408;DHT22;12542;50.924;4.516;2023-03-23T13:50:59;18.60;99.90
24408;DHT22;12542;50.924;4.516;2023-03-23T13:53:44;19.10;99.90
24408;DHT22;12542;50.924;4.516;2023-03-23T13:56:16;18.80;99.90
24408;DHT22;12542;50.924;4.516;2023-03-23T13:58:49;18.50;99.90
24408;DHT22;12542;50.924;4.516;2023-03-23T14:01:32;18.20;99.90
24408;DHT22;12542;50.924;4.516;2023-03-23T14:03:59;18.00;99.90
24408;DHT22;12542;50.924;4.516;2023-03-23T14:06:33;18.10;99.90
24408;DHT22;12542;50.924;4.516;2023-03-23T14:09:06;18.00;99.90
24408;DHT22;12542;50.924;4.516;2023-03-23T14:11:55;17.90;99.90
24408;DHT22;12542;50.924;4.516;2023-03-23T14:19:38;18.30;99.90
24408;DHT22;12542;50.924;4.516;2023-03-23T14:22:37;18.40;99.90
24408;DHT22;12542;50.924;4.516;2023-03-23T14:25:15;18.30;99.90
24408;DHT22;12542;50.924;4.516;2023-03-23T14:27:46;17.90;99.90
24408;DHT22;12542;50.924;4.516;2023-03-23T14:30:18;18.20;99.90
24408;DHT22;12542;50.924;4.516;2023-03-23T14:32:44;17.80;99.90
24408;DHT22;12542;50.924;4.516;2023-03-23T14:35:32;17.70;99.90
24408;DHT22;12542;50.924;4.516;2023-03-23T14:37:58;17.80;99.90
24408;DHT22;12542;50.924;4.516;2023-03-23T14:40:27;18.10;99.90
24408;DHT22;12542;50.924;4.516;2023-03-23T14:42:53;18.20;99.90
24408;DHT22;12542;50.924;4.516;2023-03-23T14:45:21;18.30;99.90
24408;DHT22;12542;50.924;4.516;2023-03-23T14:50:30;17.80;99.90
24408;DHT22;12542;50.924;4.516;2023-03-23T14:53:18;18.00;99.90
24408;DHT22;12542;50.924;4.516;2023-03-23T14:55:47;17.70;99.90
24408;DHT22;12542;50.924;4.516;2023-03-23T14:58:14;17.60;99.90
24408;DHT22;12542;50.924;4.516;2023-03-23T15:01:09;17.30;99.90
24408;DHT22;12542;50.924;4.516;2023-03-23T15:03:43;17.20;99.90
24408;DHT22;12542;50.924;4.516;2023-03-23T15:06:17;17.30;99.90
24408;DHT22;12542;50.924;4.516;2023-03-23T15:08:45;17.50;99.90
24408;DHT22;12542;50.924;4.516;2023-03-23T15:11:25;17.40;99.90
24408;DHT22;12542;50.924;4.516;2023-03-23T15:13:55;17.30;99.90
24408;DHT22;12542;50.924;4.516;2023-03-23T15:16:31;16.90;99.90
24408;DHT22;12542;50.924;4.516;2023-03-23T15:19:14;16.70;99.90
24408;DHT22;12542;50.924;4.516;2023-03-23T15:21:48;16.40;99.90
24408;DHT22;12542;50.924;4.516;2023-03-23T15:24:33;16.60;99.90
24408;DHT22;12542;50.924;4.516;2023-03-23T15:27:13;16.50;99.90
24408;DHT22;12542;50.924;4.516;2023-03-23T15:29:57;16.20;99.90
24408;DHT22;12542;50.924;4.516;2023-03-23T15:32:28;16.30;99.90
24408;DHT22;12542;50.924;4.516;2023-03-23T15:34:55;16.40;99.90
24408;DHT22;12542;50.924;4.516;2023-03-23T15:37:26;16.60;99.90
24408;DHT22;12542;50.924;4.516;2023-03-23T15:39:52;16.40;99.90
24408;DHT22;12542;50.924;4.516;2023-03-23T15:42:25;16.20;99.90
24408;DHT22;12542;50.924;4.516;2023-03-23T15:52:52;15.90;99.90
24408;DHT22;12542;50.924;4.516;2023-03-23T15:55:35;15.90;99.90
24408;DHT22;12542;50.924;4.516;2023-03-23T15:58:01;15.90;99.90
24408;DHT22;12542;50.924;4.516;2023-03-23T16:00:33;15.80;99.90
24408;DHT22;12542;50.924;4.516;2023-03-23T16:03:01;15.70;99.90
24408;DHT22;12542;50.924;4.516;2023-03-23T16:05:28;15.60;99.90
24408;DHT22;12542;50.924;4.516;2023-03-23T16:07:54;15.60;99.90
24408;DHT22;12542;50.924;4.516;2023-03-23T16:10:22;15.40;99.90
24408;DHT22;12542;50.924;4.516;2023-03-23T16:12:51;15.50;99.90
24408;DHT22;12542;50.924;4.516;2023-03-23T16:15:17;15.50;99.90
24408;DHT22;12542;50.924;4.516;2023-03-23T16:17:43;15.50;99.90
24408;DHT22;12542;50.924;4.516;2023-03-23T16:20:16;15.60;99.90
24408;DHT22;12542;50.924;4.516;2023-03-23T16:22:42;15.70;99.90
24408;DHT22;12542;50.924;4.516;2023-03-23T16:25:09;15.70;99.90
24408;DHT22;12542;50.924;4.516;2023-03-23T16:27:36;15.70;99.90
24408;DHT22;12542;50.924;4.516;2023-03-23T16:30:15;15.80;99.90
24408;DHT22;12542;50.924;4.516;2023-03-23T16:32:41;16.00;99.90
24408;DHT22;12542;50.924;4.516;2023-03-23T16:35:08;16.00;99.90
24408;DHT22;12542;50.924;4.516;2023-03-23T16:37:34;15.90;99.90
24408;DHT22;12542;50.924;4.516;2023-03-23T16:40:04;15.90;99.90
24408;DHT22;12542;50.924;4.516;2023-03-23T16:42:31;15.90;99.90
24408;DHT22;12542;50.924;4.516;2023-03-23T16:44:59;15.90;99.90
24408;DHT22;12542;50.924;4.516;2023-03-23T16:47:25;15.70;99.90
24408;DHT22;12542;50.924;4.516;2023-03-23T16:49:51;15.70;99.90
24408;DHT22;12542;50.924;4.516;2023-03-23T16:52:18;15.50;99.90
24408;DHT22;12542;50.924;4.516;2023-03-23T16:54:44;15.50;99.90
24408;DHT22;12542;50.924;4.516;2023-03-23T16:57:10;15.40;99.90
24408;DHT22;12542;50.924;4.516;2023-03-23T16:59:36;15.40;99.90
24408;DHT22;12542;50.924;4.516;2023-03-23T17:02:02;15.30;99.90
24408;DHT22;12542;50.924;4.516;2023-03-23T17:04:32;15.20;99.90
24408;DHT22;12542;50.924;4.516;2023-03-23T17:06:58;15.20;99.90
24408;DHT22;12542;50.924;4.516;2023-03-23T17:09:25;15.10;99.90
24408;DHT22;12542;50.924;4.516;2023-03-23T17:11:52;15.10;99.90
24408;DHT22;12542;50.924;4.516;2023-03-23T17:14:18;15.10;99.90
24408;DHT22;12542;50.924;4.516;2023-03-23T17:16:44;15.00;99.90
24408;DHT22;12542;50.924;4.516;2023-03-23T17:19:10;15.10;99.90
24408;DHT22;12542;50.924;4.516;2023-03-23T17:21:39;15.00;99.90
24408;DHT22;12542;50.924;4.516;2023-03-23T17:24:05;15.00;99.90
24408;DHT22;12542;50.924;4.516;2023-03-23T17:26:31;15.00;99.90
24408;DHT22;12542;50.924;4.516;2023-03-23T17:28:56;15.00;99.90
24408;DHT22;12542;50.924;4.516;2023-03-23T17:31:22;15.00;99.90
24408;DHT22;12542;50.924;4.516;2023-03-23T17:33:48;15.00;99.90
24408;DHT22;12542;50.924;4.516;2023-03-23T17:36:14;15.00;99.90
24408;DHT22;12542;50.924;4.516;2023-03-23T17:38:39;15.00;99.90
24408;DHT22;12542;50.924;4.516;2023-03-23T17:41:05;15.00;99.90
24408;DHT22;12542;50.924;4.516;2023-03-23T17:43:32;15.00;99.90
24408;DHT22;12542;50.924;4.516;2023-03-23T17:45:59;15.00;99.90
24408;DHT22;12542;50.924;4.516;2023-03-23T17:48:25;15.00;99.90
24408;DHT22;12542;50.924;4.516;2023-03-23T17:50:54;15.00;99.90
24408;DHT22;12542;50.924;4.516;2023-03-23T17:53:22;15.00;99.90
24408;DHT22;12542;50.924;4.516;2023-03-23T17:55:50;15.00;99.90